sensor_id;sensor_type;location;lat;lon;timestamp;P1;durP1;ratioP1;P2;durP2;ratioP2
65684;SDS011;52405;50.844;-1.062;2023-02-15T00:02:00;48.33;;;28.40;;
65684;SDS011;52405;50.844;-1.062;2023-02-15T00:04:26;47.05;;;29.02;;
65684;SDS011;52405;50.844;-1.062;2023-02-15T00:07:11;43.95;;;27.98;;
65684;SDS011;52405;50.844;-1.062;2023-02-15T00:09:37;50.33;;;30.55;;
65684;SDS011;52405;50.844;-1.062;2023-02-15T00:12:03;59.25;;;33.97;;
65684;SDS011;52405;50.844;-1.062;2023-02-15T00:14:28;47.58;;;30.35;;
65684;SDS011;52405;50.844;-1.062;2023-02-15T00:16:54;51.28;;;31.75;;
65684;SDS011;52405;50.844;-1.062;2023-02-15T00:19:20;54.83;;;31.33;;
65684;SDS011;52405;50.844;-1.062;2023-02-15T00:21:46;49.13;;;31.90;;
65684;SDS011;52405;50.844;-1.062;2023-02-15T00:24:14;53.63;;;33.65;;
65684;SDS011;52405;50.844;-1.062;2023-02-15T00:26:41;53.88;;;32.17;;
65684;SDS011;52405;50.844;-1.062;2023-02-15T00:29:07;56.35;;;33.80;;
65684;SDS011;52405;50.844;-1.062;2023-02-15T00:31:34;52.03;;;34.75;;
65684;SDS011;52405;50.844;-1.062;2023-02-15T00:34:03;59.70;;;33.67;;
65684;SDS011;52405;50.844;-1.062;2023-02-15T00:36:48;55.72;;;34.35;;
65684;SDS011;52405;50.844;-1.062;2023-02-15T00:39:15;53.92;;;34.42;;
65684;SDS011;52405;50.844;-1.062;2023-02-15T00:41:41;52.67;;;33.08;;
65684;SDS011;52405;50.844;-1.062;2023-02-15T00:44:09;65.90;;;36.25;;
65684;SDS011;52405;50.844;-1.062;2023-02-15T00:46:38;60.72;;;34.60;;
65684;SDS011;52405;50.844;-1.062;2023-02-15T00:49:07;60.70;;;35.28;;
65684;SDS011;52405;50.844;-1.062;2023-02-15T00:51:35;57.60;;;35.35;;
65684;SDS011;52405;50.844;-1.062;2023-02-15T00:54:00;56.03;;;35.90;;
65684;SDS011;52405;50.844;-1.062;2023-02-15T00:56:28;58.67;;;37.42;;
65684;SDS011;52405;50.844;-1.062;2023-02-15T00:58:53;64.78;;;36.95;;
65684;SDS011;52405;50.844;-1.062;2023-02-15T01:01:20;63.08;;;37.97;;
65684;SDS011;52405;50.844;-1.062;2023-02-15T01:03:48;64.07;;;38.30;;
65684;SDS011;52405;50.844;-1.062;2023-02-15T01:06:14;59.70;;;37.53;;
65684;SDS011;52405;50.844;-1.062;2023-02-15T01:08:41;63.75;;;39.97;;
65684;SDS011;52405;50.844;-1.062;2023-02-15T01:11:09;62.00;;;39.97;;
65684;SDS011;52405;50.844;-1.062;2023-02-15T01:13:36;62.15;;;38.25;;
65684;SDS011;52405;50.844;-1.062;2023-02-15T01:16:02;61.45;;;39.70;;
65684;SDS011;52405;50.844;-1.062;2023-02-15T01:18:28;65.13;;;41.38;;
65684;SDS011;52405;50.844;-1.062;2023-02-15T01:20:53;61.78;;;37.75;;
65684;SDS011;52405;50.844;-1.062;2023-02-15T01:23:22;66.85;;;38.13;;
65684;SDS011;52405;50.844;-1.062;2023-02-15T01:25:48;65.68;;;37.63;;
65684;SDS011;52405;50.844;-1.062;2023-02-15T01:28:13;67.32;;;40.47;;
65684;SDS011;52405;50.844;-1.062;2023-02-15T01:30:39;66.20;;;41.25;;
65684;SDS011;52405;50.844;-1.062;2023-02-15T01:33:04;68.78;;;40.97;;
65684;SDS011;52405;50.844;-1.062;2023-02-15T01:35:32;66.40;;;39.28;;
65684;SDS011;52405;50.844;-1.062;2023-02-15T01:37:58;65.28;;;39.35;;
65684;SDS011;52405;50.844;-1.062;2023-02-15T01:40:26;73.65;;;40.30;;
65684;SDS011;52405;50.844;-1.062;2023-02-15T01:42:52;74.05;;;41.03;;
65684;SDS011;52405;50.844;-1.062;2023-02-15T01:47:52;71.03;;;43.13;;
65684;SDS011;52405;50.844;-1.062;2023-02-15T01:50:27;69.93;;;41.05;;
65684;SDS011;52405;50.844;-1.062;2023-02-15T01:55:19;68.05;;;41.10;;
65684;SDS011;52405;50.844;-1.062;2023-02-15T01:57:52;72.45;;;42.95;;
65684;SDS011;52405;50.844;-1.062;2023-02-15T02:00:18;74.22;;;41.08;;
65684;SDS011;52405;50.844;-1.062;2023-02-15T02:02:46;70.00;;;41.60;;
65684;SDS011;52405;50.844;-1.062;2023-02-15T02:05:16;76.10;;;42.35;;
65684;SDS011;52405;50.844;-1.062;2023-02-15T02:07:44;70.25;;;41.88;;
65684;SDS011;52405;50.844;-1.062;2023-02-15T02:10:15;76.18;;;48.17;;
65684;SDS011;52405;50.844;-1.062;2023-02-15T02:12:43;76.97;;;43.10;;
65684;SDS011;52405;50.844;-1.062;2023-02-15T02:15:13;74.60;;;45.65;;
65684;SDS011;52405;50.844;-1.062;2023-02-15T02:37:34;81.20;;;45.95;;
65684;SDS011;52405;50.844;-1.062;2023-02-15T02:42:54;82.20;;;44.63;;
65684;SDS011;52405;50.844;-1.062;2023-02-15T02:45:27;78.18;;;46.30;;
65684;SDS011;52405;50.844;-1.062;2023-02-15T02:47:57;68.88;;;42.53;;
65684;SDS011;52405;50.844;-1.062;2023-02-15T02:50:29;76.82;;;38.90;;
65684;SDS011;52405;50.844;-1.062;2023-02-15T02:52:57;73.10;;;46.95;;
65684;SDS011;52405;50.844;-1.062;2023-02-15T02:58:31;80.55;;;44.10;;
65684;SDS011;52405;50.844;-1.062;2023-02-15T03:03:47;78.05;;;40.28;;
65684;SDS011;52405;50.844;-1.062;2023-02-15T03:06:19;76.63;;;43.92;;
65684;SDS011;52405;50.844;-1.062;2023-02-15T03:09:15;76.70;;;42.28;;
65684;SDS011;52405;50.844;-1.062;2023-02-15T03:11:49;73.88;;;41.50;;
65684;SDS011;52405;50.844;-1.062;2023-02-15T03:14:16;78.95;;;45.13;;
65684;SDS011;52405;50.844;-1.062;2023-02-15T03:16:44;83.57;;;47.92;;
65684;SDS011;52405;50.844;-1.062;2023-02-15T03:19:17;79.82;;;46.45;;
65684;SDS011;52405;50.844;-1.062;2023-02-15T03:21:50;82.20;;;49.22;;
65684;SDS011;52405;50.844;-1.062;2023-02-15T03:24:40;87.15;;;48.08;;
65684;SDS011;52405;50.844;-1.062;2023-02-15T03:27:16;81.00;;;45.45;;
65684;SDS011;52405;50.844;-1.062;2023-02-15T03:29:48;90.60;;;51.67;;
65684;SDS011;52405;50.844;-1.062;2023-02-15T03:32:21;93.35;;;50.55;;
65684;SDS011;52405;50.844;-1.062;2023-02-15T03:34:48;87.10;;;48.58;;
65684;SDS011;52405;50.844;-1.062;2023-02-15T03:40:00;85.22;;;48.03;;
65684;SDS011;52405;50.844;-1.062;2023-02-15T03:42:55;91.45;;;49.35;;
65684;SDS011;52405;50.844;-1.062;2023-02-15T03:45:32;94.63;;;53.53;;
65684;SDS011;52405;50.844;-1.062;2023-02-15T03:47:59;100.38;;;55.17;;
65684;SDS011;52405;50.844;-1.062;2023-02-15T03:50:27;98.32;;;54.85;;
65684;SDS011;52405;50.844;-1.062;2023-02-15T03:53:15;99.00;;;55.45;;
65684;SDS011;52405;50.844;-1.062;2023-02-15T03:55:48;99.57;;;55.72;;
65684;SDS011;52405;50.844;-1.062;2023-02-15T03:58:18;94.93;;;54.25;;
65684;SDS011;52405;50.844;-1.062;2023-02-15T04:01:10;95.35;;;55.15;;
65684;SDS011;52405;50.844;-1.062;2023-02-15T04:04:06;99.13;;;53.67;;
65684;SDS011;52405;50.844;-1.062;2023-02-15T04:06:36;95.82;;;54.13;;
65684;SDS011;52405;50.844;-1.062;2023-02-15T04:09:02;91.43;;;53.90;;
65684;SDS011;52405;50.844;-1.062;2023-02-15T04:11:46;99.68;;;56.97;;
65684;SDS011;52405;50.844;-1.062;2023-02-15T04:14:13;103.78;;;57.55;;
65684;SDS011;52405;50.844;-1.062;2023-02-15T04:16:58;103.20;;;53.67;;
65684;SDS011;52405;50.844;-1.062;2023-02-15T04:19:23;93.88;;;54.65;;
65684;SDS011;52405;50.844;-1.062;2023-02-15T04:22:07;92.95;;;53.65;;
65684;SDS011;52405;50.844;-1.062;2023-02-15T04:24:51;91.82;;;54.28;;
65684;SDS011;52405;50.844;-1.062;2023-02-15T04:27:36;93.70;;;54.07;;
65684;SDS011;52405;50.844;-1.062;2023-02-15T04:30:03;96.85;;;55.60;;
65684;SDS011;52405;50.844;-1.062;2023-02-15T04:32:31;93.22;;;53.45;;
65684;SDS011;52405;50.844;-1.062;2023-02-15T04:34:59;93.07;;;54.63;;
65684;SDS011;52405;50.844;-1.062;2023-02-15T04:37:24;88.53;;;51.35;;
65684;SDS011;52405;50.844;-1.062;2023-02-15T04:39:52;100.90;;;52.55;;
65684;SDS011;52405;50.844;-1.062;2023-02-15T04:42:18;87.93;;;52.40;;
65684;SDS011;52405;50.844;-1.062;2023-02-15T04:44:45;92.20;;;51.55;;
65684;SDS011;52405;50.844;-1.062;2023-02-15T04:47:11;96.82;;;55.58;;
65684;SDS011;52405;50.844;-1.062;2023-02-15T04:49:36;93.32;;;50.40;;
65684;SDS011;52405;50.844;-1.062;2023-02-15T04:52:02;96.68;;;53.38;;
65684;SDS011;52405;50.844;-1.062;2023-02-15T04:54:27;85.50;;;50.33;;
65684;SDS011;52405;50.844;-1.062;2023-02-15T04:56:53;92.60;;;54.47;;
65684;SDS011;52405;50.844;-1.062;2023-02-15T04:59:18;90.40;;;52.47;;
65684;SDS011;52405;50.844;-1.062;2023-02-15T05:01:44;92.25;;;53.70;;
65684;SDS011;52405;50.844;-1.062;2023-02-15T05:04:12;97.80;;;53.65;;
65684;SDS011;52405;50.844;-1.062;2023-02-15T05:06:37;88.85;;;52.40;;
65684;SDS011;52405;50.844;-1.062;2023-02-15T05:09:05;92.45;;;55.33;;
65684;SDS011;52405;50.844;-1.062;2023-02-15T05:11:30;99.65;;;53.65;;
65684;SDS011;52405;50.844;-1.062;2023-02-15T05:13:58;91.90;;;54.30;;
65684;SDS011;52405;50.844;-1.062;2023-02-15T05:16:23;95.18;;;53.60;;
65684;SDS011;52405;50.844;-1.062;2023-02-15T05:18:49;99.32;;;53.25;;
65684;SDS011;52405;50.844;-1.062;2023-02-15T05:21:14;92.60;;;54.28;;
65684;SDS011;52405;50.844;-1.062;2023-02-15T05:23:42;93.25;;;54.55;;
65684;SDS011;52405;50.844;-1.062;2023-02-15T05:26:11;92.70;;;54.33;;
65684;SDS011;52405;50.844;-1.062;2023-02-15T05:29:01;95.57;;;53.17;;
65684;SDS011;52405;50.844;-1.062;2023-02-15T05:31:26;94.00;;;50.15;;
65684;SDS011;52405;50.844;-1.062;2023-02-15T05:33:52;90.45;;;54.08;;
65684;SDS011;52405;50.844;-1.062;2023-02-15T05:36:17;97.70;;;51.67;;
65684;SDS011;52405;50.844;-1.062;2023-02-15T05:38:43;92.90;;;53.95;;
65684;SDS011;52405;50.844;-1.062;2023-02-15T05:41:09;89.15;;;50.83;;
65684;SDS011;52405;50.844;-1.062;2023-02-15T05:43:35;91.75;;;50.33;;
65684;SDS011;52405;50.844;-1.062;2023-02-15T05:46:01;93.03;;;50.92;;
65684;SDS011;52405;50.844;-1.062;2023-02-15T05:48:27;91.65;;;52.72;;
65684;SDS011;52405;50.844;-1.062;2023-02-15T05:51:05;88.10;;;52.42;;
65684;SDS011;52405;50.844;-1.062;2023-02-15T05:53:33;96.07;;;53.67;;
65684;SDS011;52405;50.844;-1.062;2023-02-15T05:56:00;91.75;;;52.10;;
65684;SDS011;52405;50.844;-1.062;2023-02-15T05:58:32;84.05;;;50.58;;
65684;SDS011;52405;50.844;-1.062;2023-02-15T06:00:59;94.18;;;50.58;;
65684;SDS011;52405;50.844;-1.062;2023-02-15T06:03:36;90.40;;;50.38;;
65684;SDS011;52405;50.844;-1.062;2023-02-15T06:06:07;91.20;;;52.17;;
65684;SDS011;52405;50.844;-1.062;2023-02-15T06:08:33;89.45;;;50.42;;
65684;SDS011;52405;50.844;-1.062;2023-02-15T06:11:00;82.63;;;48.40;;
65684;SDS011;52405;50.844;-1.062;2023-02-15T06:13:26;96.00;;;51.55;;
65684;SDS011;52405;50.844;-1.062;2023-02-15T06:15:51;87.13;;;49.25;;
65684;SDS011;52405;50.844;-1.062;2023-02-15T06:18:17;84.10;;;50.58;;
65684;SDS011;52405;50.844;-1.062;2023-02-15T06:20:44;85.90;;;47.17;;
65684;SDS011;52405;50.844;-1.062;2023-02-15T06:23:10;82.80;;;49.95;;
65684;SDS011;52405;50.844;-1.062;2023-02-15T06:25:41;85.30;;;49.22;;
65684;SDS011;52405;50.844;-1.062;2023-02-15T06:28:07;79.50;;;48.20;;
65684;SDS011;52405;50.844;-1.062;2023-02-15T06:30:32;87.00;;;48.42;;
65684;SDS011;52405;50.844;-1.062;2023-02-15T06:32:58;88.03;;;49.60;;
65684;SDS011;52405;50.844;-1.062;2023-02-15T06:35:28;82.15;;;47.40;;
65684;SDS011;52405;50.844;-1.062;2023-02-15T06:37:56;87.35;;;50.75;;
65684;SDS011;52405;50.844;-1.062;2023-02-15T06:40:21;79.97;;;47.03;;
65684;SDS011;52405;50.844;-1.062;2023-02-15T06:42:46;82.97;;;49.63;;
65684;SDS011;52405;50.844;-1.062;2023-02-15T06:45:14;77.18;;;47.47;;
65684;SDS011;52405;50.844;-1.062;2023-02-15T06:47:40;84.28;;;48.28;;
65684;SDS011;52405;50.844;-1.062;2023-02-15T06:50:06;82.65;;;47.03;;
65684;SDS011;52405;50.844;-1.062;2023-02-15T06:52:32;89.95;;;48.35;;
65684;SDS011;52405;50.844;-1.062;2023-02-15T06:55:00;79.55;;;49.50;;
65684;SDS011;52405;50.844;-1.062;2023-02-15T06:57:25;77.38;;;47.58;;
65684;SDS011;52405;50.844;-1.062;2023-02-15T06:59:51;80.97;;;47.92;;
65684;SDS011;52405;50.844;-1.062;2023-02-15T07:02:19;77.78;;;47.65;;
65684;SDS011;52405;50.844;-1.062;2023-02-15T07:04:44;71.57;;;42.70;;
65684;SDS011;52405;50.844;-1.062;2023-02-15T07:07:10;71.60;;;41.83;;
65684;SDS011;52405;50.844;-1.062;2023-02-15T07:09:38;71.65;;;42.08;;
65684;SDS011;52405;50.844;-1.062;2023-02-15T07:12:04;71.05;;;41.42;;
65684;SDS011;52405;50.844;-1.062;2023-02-15T07:14:48;73.05;;;39.25;;
65684;SDS011;52405;50.844;-1.062;2023-02-15T07:17:14;71.25;;;40.88;;
65684;SDS011;52405;50.844;-1.062;2023-02-15T07:19:39;71.07;;;42.45;;
65684;SDS011;52405;50.844;-1.062;2023-02-15T07:22:07;70.72;;;39.67;;
65684;SDS011;52405;50.844;-1.062;2023-02-15T07:24:33;72.15;;;41.25;;
65684;SDS011;52405;50.844;-1.062;2023-02-15T07:27:01;72.75;;;41.10;;
65684;SDS011;52405;50.844;-1.062;2023-02-15T07:29:26;70.68;;;42.08;;
65684;SDS011;52405;50.844;-1.062;2023-02-15T07:31:54;72.00;;;39.28;;
65684;SDS011;52405;50.844;-1.062;2023-02-15T07:34:22;70.75;;;41.05;;
65684;SDS011;52405;50.844;-1.062;2023-02-15T07:36:50;66.70;;;40.30;;
65684;SDS011;52405;50.844;-1.062;2023-02-15T07:39:16;70.20;;;39.95;;
65684;SDS011;52405;50.844;-1.062;2023-02-15T07:41:42;66.03;;;39.25;;
65684;SDS011;52405;50.844;-1.062;2023-02-15T07:44:11;71.70;;;39.97;;
65684;SDS011;52405;50.844;-1.062;2023-02-15T07:46:37;67.03;;;39.33;;
65684;SDS011;52405;50.844;-1.062;2023-02-15T07:49:03;68.10;;;40.38;;
65684;SDS011;52405;50.844;-1.062;2023-02-15T07:51:28;63.30;;;38.63;;
65684;SDS011;52405;50.844;-1.062;2023-02-15T07:53:54;69.88;;;41.70;;
65684;SDS011;52405;50.844;-1.062;2023-02-15T07:56:21;72.32;;;39.63;;
65684;SDS011;52405;50.844;-1.062;2023-02-15T07:58:47;76.13;;;42.70;;
65684;SDS011;52405;50.844;-1.062;2023-02-15T08:01:18;66.13;;;41.67;;
65684;SDS011;52405;50.844;-1.062;2023-02-15T08:03:48;69.82;;;38.65;;
65684;SDS011;52405;50.844;-1.062;2023-02-15T08:06:16;65.97;;;39.63;;
65684;SDS011;52405;50.844;-1.062;2023-02-15T08:08:43;69.53;;;40.10;;
65684;SDS011;52405;50.844;-1.062;2023-02-15T08:11:18;67.00;;;39.20;;
65684;SDS011;52405;50.844;-1.062;2023-02-15T08:13:54;65.15;;;38.45;;
65684;SDS011;52405;50.844;-1.062;2023-02-15T08:21:47;66.35;;;38.75;;
65684;SDS011;52405;50.844;-1.062;2023-02-15T08:24:22;66.30;;;39.70;;
65684;SDS011;52405;50.844;-1.062;2023-02-15T08:26:49;62.50;;;39.55;;
65684;SDS011;52405;50.844;-1.062;2023-02-15T08:29:16;79.80;;;41.65;;
65684;SDS011;52405;50.844;-1.062;2023-02-15T08:31:43;82.53;;;40.72;;
65684;SDS011;52405;50.844;-1.062;2023-02-15T08:34:13;65.57;;;39.70;;
65684;SDS011;52405;50.844;-1.062;2023-02-15T08:36:40;61.78;;;38.58;;
65684;SDS011;52405;50.844;-1.062;2023-02-15T08:39:06;62.00;;;37.88;;
65684;SDS011;52405;50.844;-1.062;2023-02-15T08:41:36;59.80;;;38.70;;
65684;SDS011;52405;50.844;-1.062;2023-02-15T08:44:03;68.63;;;37.92;;
65684;SDS011;52405;50.844;-1.062;2023-02-15T08:46:31;63.67;;;38.63;;
65684;SDS011;52405;50.844;-1.062;2023-02-15T08:48:58;54.60;;;34.65;;
65684;SDS011;52405;50.844;-1.062;2023-02-15T08:51:26;61.17;;;37.58;;
65684;SDS011;52405;50.844;-1.062;2023-02-15T08:53:54;61.03;;;37.58;;
65684;SDS011;52405;50.844;-1.062;2023-02-15T08:56:29;58.65;;;36.80;;
65684;SDS011;52405;50.844;-1.062;2023-02-15T08:58:58;57.72;;;37.58;;
65684;SDS011;52405;50.844;-1.062;2023-02-15T09:01:27;55.72;;;36.17;;
65684;SDS011;52405;50.844;-1.062;2023-02-15T09:03:55;56.72;;;34.03;;
65684;SDS011;52405;50.844;-1.062;2023-02-15T09:06:26;53.83;;;34.28;;
65684;SDS011;52405;50.844;-1.062;2023-02-15T09:08:53;57.95;;;35.17;;
65684;SDS011;52405;50.844;-1.062;2023-02-15T09:11:23;53.17;;;32.63;;
65684;SDS011;52405;50.844;-1.062;2023-02-15T09:13:54;54.63;;;34.88;;
65684;SDS011;52405;50.844;-1.062;2023-02-15T09:16:26;54.78;;;33.25;;
65684;SDS011;52405;50.844;-1.062;2023-02-15T09:18:57;46.22;;;29.23;;
65684;SDS011;52405;50.844;-1.062;2023-02-15T09:21:23;47.85;;;29.73;;
65684;SDS011;52405;50.844;-1.062;2023-02-15T09:23:52;43.22;;;28.85;;
65684;SDS011;52405;50.844;-1.062;2023-02-15T09:26:22;45.42;;;27.98;;
65684;SDS011;52405;50.844;-1.062;2023-02-15T09:28:52;41.45;;;25.75;;
65684;SDS011;52405;50.844;-1.062;2023-02-15T09:31:21;33.15;;;23.50;;
65684;SDS011;52405;50.844;-1.062;2023-02-15T09:33:51;41.47;;;25.52;;
65684;SDS011;52405;50.844;-1.062;2023-02-15T09:38:56;35.13;;;22.80;;
65684;SDS011;52405;50.844;-1.062;2023-02-15T09:44:13;36.13;;;23.25;;
65684;SDS011;52405;50.844;-1.062;2023-02-15T10:01:25;30.02;;;19.25;;
65684;SDS011;52405;50.844;-1.062;2023-02-15T10:06:53;29.08;;;18.38;;
65684;SDS011;52405;50.844;-1.062;2023-02-15T10:09:41;22.30;;;15.50;;
65684;SDS011;52405;50.844;-1.062;2023-02-15T10:26:33;20.23;;;13.55;;
65684;SDS011;52405;50.844;-1.062;2023-02-15T10:29:04;26.77;;;14.82;;
65684;SDS011;52405;50.844;-1.062;2023-02-15T10:34:19;23.77;;;14.88;;
65684;SDS011;52405;50.844;-1.062;2023-02-15T10:36:53;21.67;;;14.20;;
65684;SDS011;52405;50.844;-1.062;2023-02-15T10:44:37;22.70;;;14.23;;
65684;SDS011;52405;50.844;-1.062;2023-02-15T10:50:02;25.45;;;15.10;;
65684;SDS011;52405;50.844;-1.062;2023-02-15T11:07:08;22.70;;;14.10;;
65684;SDS011;52405;50.844;-1.062;2023-02-15T11:09:44;21.70;;;13.90;;
65684;SDS011;52405;50.844;-1.062;2023-02-15T11:12:17;19.10;;;13.68;;
65684;SDS011;52405;50.844;-1.062;2023-02-15T11:14:56;23.65;;;13.25;;
65684;SDS011;52405;50.844;-1.062;2023-02-15T11:17:32;18.40;;;13.13;;
65684;SDS011;52405;50.844;-1.062;2023-02-15T11:23:35;21.70;;;13.02;;
65684;SDS011;52405;50.844;-1.062;2023-02-15T11:26:11;25.40;;;12.93;;
65684;SDS011;52405;50.844;-1.062;2023-02-15T11:28:43;23.92;;;13.40;;
65684;SDS011;52405;50.844;-1.062;2023-02-15T11:31:17;18.45;;;13.18;;
65684;SDS011;52405;50.844;-1.062;2023-02-15T11:34:04;21.38;;;13.70;;
65684;SDS011;52405;50.844;-1.062;2023-02-15T11:36:38;19.20;;;13.48;;
65684;SDS011;52405;50.844;-1.062;2023-02-15T11:39:11;24.70;;;13.18;;
65684;SDS011;52405;50.844;-1.062;2023-02-15T11:41:50;16.52;;;12.90;;
65684;SDS011;52405;50.844;-1.062;2023-02-15T11:44:24;20.30;;;12.98;;
65684;SDS011;52405;50.844;-1.062;2023-02-15T11:46:59;22.13;;;12.00;;
65684;SDS011;52405;50.844;-1.062;2023-02-15T11:49:33;20.88;;;12.77;;
65684;SDS011;52405;50.844;-1.062;2023-02-15T11:52:04;14.43;;;11.30;;
65684;SDS011;52405;50.844;-1.062;2023-02-15T11:54:33;22.42;;;12.77;;
65684;SDS011;52405;50.844;-1.062;2023-02-15T11:57:13;19.95;;;11.95;;
65684;SDS011;52405;50.844;-1.062;2023-02-15T11:59:47;19.35;;;12.55;;
65684;SDS011;52405;50.844;-1.062;2023-02-15T12:02:35;18.73;;;11.13;;
65684;SDS011;52405;50.844;-1.062;2023-02-15T12:05:06;25.95;;;12.52;;
65684;SDS011;52405;50.844;-1.062;2023-02-15T12:07:44;17.23;;;10.65;;
65684;SDS011;52405;50.844;-1.062;2023-02-15T12:10:25;21.35;;;11.52;;
65684;SDS011;52405;50.844;-1.062;2023-02-15T12:13:09;19.77;;;12.20;;
65684;SDS011;52405;50.844;-1.062;2023-02-15T12:15:35;21.75;;;11.68;;
65684;SDS011;52405;50.844;-1.062;2023-02-15T12:18:02;17.15;;;10.30;;
65684;SDS011;52405;50.844;-1.062;2023-02-15T12:20:29;17.67;;;10.95;;
65684;SDS011;52405;50.844;-1.062;2023-02-15T12:23:01;20.83;;;11.18;;
65684;SDS011;52405;50.844;-1.062;2023-02-15T12:25:36;17.80;;;10.73;;
65684;SDS011;52405;50.844;-1.062;2023-02-15T12:28:16;16.15;;;11.45;;
65684;SDS011;52405;50.844;-1.062;2023-02-15T12:30:43;25.10;;;12.13;;
65684;SDS011;52405;50.844;-1.062;2023-02-15T12:33:17;24.98;;;12.35;;
65684;SDS011;52405;50.844;-1.062;2023-02-15T12:41:41;28.70;;;13.18;;
65684;SDS011;52405;50.844;-1.062;2023-02-15T12:44:17;14.95;;;10.57;;
65684;SDS011;52405;50.844;-1.062;2023-02-15T12:49:22;19.15;;;9.52;;
65684;SDS011;52405;50.844;-1.062;2023-02-15T12:51:49;15.93;;;9.32;;
65684;SDS011;52405;50.844;-1.062;2023-02-15T12:54:16;16.88;;;9.63;;
65684;SDS011;52405;50.844;-1.062;2023-02-15T12:56:47;14.52;;;10.25;;
65684;SDS011;52405;50.844;-1.062;2023-02-15T12:59:13;20.08;;;9.95;;
65684;SDS011;52405;50.844;-1.062;2023-02-15T13:01:40;16.98;;;10.00;;
65684;SDS011;52405;50.844;-1.062;2023-02-15T13:04:14;17.17;;;9.80;;
65684;SDS011;52405;50.844;-1.062;2023-02-15T13:06:47;16.38;;;10.38;;
65684;SDS011;52405;50.844;-1.062;2023-02-15T13:11:50;21.13;;;10.95;;
65684;SDS011;52405;50.844;-1.062;2023-02-15T13:14:19;15.20;;;10.65;;
65684;SDS011;52405;50.844;-1.062;2023-02-15T13:16:48;18.95;;;10.63;;
65684;SDS011;52405;50.844;-1.062;2023-02-15T13:19:17;13.65;;;10.18;;
65684;SDS011;52405;50.844;-1.062;2023-02-15T13:21:52;20.65;;;10.63;;
65684;SDS011;52405;50.844;-1.062;2023-02-15T13:24:24;20.40;;;10.65;;
65684;SDS011;52405;50.844;-1.062;2023-02-15T13:26:57;19.10;;;9.65;;
65684;SDS011;52405;50.844;-1.062;2023-02-15T13:29:27;16.15;;;9.57;;
65684;SDS011;52405;50.844;-1.062;2023-02-15T13:32:00;14.13;;;9.82;;
65684;SDS011;52405;50.844;-1.062;2023-02-15T13:34:52;22.00;;;9.35;;
65684;SDS011;52405;50.844;-1.062;2023-02-15T13:37:26;16.30;;;10.20;;
65684;SDS011;52405;50.844;-1.062;2023-02-15T13:40:11;18.00;;;9.25;;
65684;SDS011;52405;50.844;-1.062;2023-02-15T13:42:41;13.90;;;8.40;;
65684;SDS011;52405;50.844;-1.062;2023-02-15T13:48:19;13.40;;;7.18;;
65684;SDS011;52405;50.844;-1.062;2023-02-15T13:54:26;14.37;;;7.93;;
65684;SDS011;52405;50.844;-1.062;2023-02-15T13:59:44;12.70;;;8.65;;
65684;SDS011;52405;50.844;-1.062;2023-02-15T14:16:10;19.45;;;9.65;;
65684;SDS011;52405;50.844;-1.062;2023-02-15T14:18:46;18.48;;;10.65;;
65684;SDS011;52405;50.844;-1.062;2023-02-15T14:21:17;16.60;;;10.98;;
65684;SDS011;52405;50.844;-1.062;2023-02-15T14:29:11;18.13;;;10.20;;
65684;SDS011;52405;50.844;-1.062;2023-02-15T14:31:41;13.20;;;9.65;;
65684;SDS011;52405;50.844;-1.062;2023-02-15T14:34:17;13.95;;;10.13;;
65684;SDS011;52405;50.844;-1.062;2023-02-15T14:36:52;18.30;;;9.75;;
65684;SDS011;52405;50.844;-1.062;2023-02-15T14:42:30;16.17;;;8.57;;
65684;SDS011;52405;50.844;-1.062;2023-02-15T14:47:45;22.17;;;10.35;;
65684;SDS011;52405;50.844;-1.062;2023-02-15T14:50:39;19.10;;;10.82;;
65684;SDS011;52405;50.844;-1.062;2023-02-15T14:56:30;17.73;;;9.35;;
65684;SDS011;52405;50.844;-1.062;2023-02-15T15:01:16;18.20;;;9.05;;
65684;SDS011;52405;50.844;-1.062;2023-02-15T15:04:01;13.70;;;9.40;;
65684;SDS011;52405;50.844;-1.062;2023-02-15T15:06:38;16.70;;;9.85;;
65684;SDS011;52405;50.844;-1.062;2023-02-15T15:14:52;18.80;;;9.57;;
65684;SDS011;52405;50.844;-1.062;2023-02-15T15:25:41;18.98;;;10.77;;
65684;SDS011;52405;50.844;-1.062;2023-02-15T15:28:30;23.10;;;10.52;;
65684;SDS011;52405;50.844;-1.062;2023-02-15T15:31:06;18.90;;;10.73;;
65684;SDS011;52405;50.844;-1.062;2023-02-15T15:47:57;19.30;;;9.82;;
65684;SDS011;52405;50.844;-1.062;2023-02-15T15:50:41;18.10;;;10.70;;
65684;SDS011;52405;50.844;-1.062;2023-02-15T15:55:49;17.35;;;11.15;;
65684;SDS011;52405;50.844;-1.062;2023-02-15T15:58:17;19.63;;;11.68;;
65684;SDS011;52405;50.844;-1.062;2023-02-15T16:00:46;20.52;;;11.45;;
65684;SDS011;52405;50.844;-1.062;2023-02-15T16:03:15;22.75;;;10.93;;
65684;SDS011;52405;50.844;-1.062;2023-02-15T16:05:51;22.58;;;11.02;;
65684;SDS011;52405;50.844;-1.062;2023-02-15T16:08:34;19.15;;;11.07;;
65684;SDS011;52405;50.844;-1.062;2023-02-15T16:11:10;23.58;;;11.80;;
65684;SDS011;52405;50.844;-1.062;2023-02-15T16:13:43;22.25;;;11.85;;
65684;SDS011;52405;50.844;-1.062;2023-02-15T16:16:11;28.60;;;11.40;;
65684;SDS011;52405;50.844;-1.062;2023-02-15T16:18:40;22.50;;;11.13;;
65684;SDS011;52405;50.844;-1.062;2023-02-15T16:21:12;18.40;;;11.60;;
65684;SDS011;52405;50.844;-1.062;2023-02-15T16:26:40;33.70;;;14.10;;
65684;SDS011;52405;50.844;-1.062;2023-02-15T16:29:23;19.23;;;12.18;;
65684;SDS011;52405;50.844;-1.062;2023-02-15T16:32:02;28.05;;;15.07;;
65684;SDS011;52405;50.844;-1.062;2023-02-15T16:35:02;28.02;;;14.20;;
65684;SDS011;52405;50.844;-1.062;2023-02-15T16:37:36;19.77;;;12.65;;
65684;SDS011;52405;50.844;-1.062;2023-02-15T16:40:01;26.13;;;15.23;;
65684;SDS011;52405;50.844;-1.062;2023-02-15T16:42:27;26.13;;;13.68;;
65684;SDS011;52405;50.844;-1.062;2023-02-15T16:45:00;25.40;;;13.23;;
65684;SDS011;52405;50.844;-1.062;2023-02-15T16:47:36;24.15;;;13.68;;
65684;SDS011;52405;50.844;-1.062;2023-02-15T16:50:06;26.73;;;15.15;;
65684;SDS011;52405;50.844;-1.062;2023-02-15T16:52:43;26.17;;;15.43;;
65684;SDS011;52405;50.844;-1.062;2023-02-15T16:55:22;29.52;;;15.43;;
65684;SDS011;52405;50.844;-1.062;2023-02-15T16:57:54;27.50;;;17.27;;
65684;SDS011;52405;50.844;-1.062;2023-02-15T17:00:25;25.77;;;15.00;;
65684;SDS011;52405;50.844;-1.062;2023-02-15T17:02:57;22.85;;;13.65;;
65684;SDS011;52405;50.844;-1.062;2023-02-15T17:05:26;23.75;;;14.68;;
65684;SDS011;52405;50.844;-1.062;2023-02-15T17:08:10;24.02;;;13.38;;
65684;SDS011;52405;50.844;-1.062;2023-02-15T17:10:44;22.70;;;14.95;;
65684;SDS011;52405;50.844;-1.062;2023-02-15T17:13:30;24.50;;;13.85;;
65684;SDS011;52405;50.844;-1.062;2023-02-15T17:18:28;27.85;;;17.02;;
65684;SDS011;52405;50.844;-1.062;2023-02-15T17:21:10;35.05;;;19.33;;
65684;SDS011;52405;50.844;-1.062;2023-02-15T17:23:43;35.42;;;18.20;;
65684;SDS011;52405;50.844;-1.062;2023-02-15T17:31:16;29.75;;;15.65;;
65684;SDS011;52405;50.844;-1.062;2023-02-15T17:33:43;24.95;;;15.07;;
65684;SDS011;52405;50.844;-1.062;2023-02-15T17:39:02;26.63;;;15.27;;
65684;SDS011;52405;50.844;-1.062;2023-02-15T17:41:35;23.08;;;14.77;;
65684;SDS011;52405;50.844;-1.062;2023-02-15T17:44:02;37.47;;;17.88;;
65684;SDS011;52405;50.844;-1.062;2023-02-15T17:46:33;29.23;;;16.15;;
65684;SDS011;52405;50.844;-1.062;2023-02-15T17:49:00;29.77;;;15.40;;
65684;SDS011;52405;50.844;-1.062;2023-02-15T17:51:26;32.25;;;14.18;;
65684;SDS011;52405;50.844;-1.062;2023-02-15T17:53:52;28.67;;;16.52;;